»·PEaware :: N875NA KSAN-KSBP

N875NA :: KSAN-KSBP

FLIGHT INFORMATION

Flight Status: Arrived
Operator: Privately registered:
United States
More flights under this callsign
Pilot: Skye D. (10623)
Aircraft: ECLIPSE 500
(EA50)
More flights by this aircraft type
Origin: KSAN San Diego Intl-Lindbergh
United States
Destination: KSBP San Luis Co Regl
United States
More flights between these airports :: More routes between these airports
Route: +PEBLE6 SXC VTU RZS MQO
File this flight plan on PilotEdge
Remarks:
Altitude:
(Current/Filed)
20,000ft
Speed:
(Current/Filed)
340kts
Departed: 06-Oct-18 04:04 PM
Arrived: 06-Oct-18 05:13 PM
Distance/Time
Traveled:
228nm/1:09
Distance/Time
To Go:
Arrived

Flight Plot

Page will automatically refresh every two minutes.


Map Options




Map Legend


Flown Route
Filed Route
Departure Airport
Arrival Airport
Navaid (VOR, NDB)
Fix

Horizontal Profiles

Position Reports

Time Latitude Longitude Heading Altitude Ground
Speed
06-Oct-18 15:47 32.732405 -117.176697 194 20ft 0kts
06-Oct-18 15:48 32.732405 -117.176697 194 20ft 0kts
06-Oct-18 15:49 32.732405 -117.176697 194 20ft 0kts
06-Oct-18 15:50 32.732405 -117.176697 194 20ft 0kts
06-Oct-18 15:51 32.732405 -117.176697 194 20ft 0kts
06-Oct-18 15:52 32.732405 -117.176697 194 20ft 0kts
06-Oct-18 15:53 32.732405 -117.176697 194 20ft 0kts
06-Oct-18 15:54 32.732405 -117.176697 194 20ft 0kts
06-Oct-18 15:55 32.732405 -117.176697 194 20ft 0kts
06-Oct-18 15:56 32.732405 -117.176697 194 20ft 0kts
06-Oct-18 15:57 32.732405 -117.176697 194 20ft 0kts
06-Oct-18 15:58 32.732405 -117.176697 194 20ft 0kts
06-Oct-18 15:59 32.732405 -117.176697 194 20ft 0kts
06-Oct-18 16:00 32.732405 -117.176697 194 20ft 0kts
06-Oct-18 16:01 32.732092 -117.177100 193 19ft 0kts
06-Oct-18 16:02 32.732011 -117.177122 193 19ft 4kts
06-Oct-18 16:03 32.731034 -117.175623 129 20ft 7kts
06-Oct-18 16:04 32.730907 -117.175453 135 20ft 1kts
06-Oct-18 16:05 32.730207 -117.175863 287 18ft 17kts
06-Oct-18 16:06 32.737934 -117.198792 302 621ft 165kts
06-Oct-18 16:07 32.765958 -117.241286 304 3120ft 194kts
06-Oct-18 16:08 32.798826 -117.289306 304 6005ft 198kts
06-Oct-18 16:09 32.829086 -117.335224 307 8629ft 195kts
06-Oct-18 16:10 32.862421 -117.383529 308 10825ft 203kts
06-Oct-18 16:11 32.905489 -117.416283 315 12813ft 203kts
06-Oct-18 16:12 32.940047 -117.459638 315 14836ft 197kts
06-Oct-18 16:13 32.970934 -117.506537 304 16455ft 203kts
06-Oct-18 16:14 33.002241 -117.556279 304 18079ft 206kts
06-Oct-18 16:15 33.033145 -117.605275 304 19514ft 210kts
06-Oct-18 16:16 33.067335 -117.659420 304 19923ft 247kts
06-Oct-18 16:17 33.106346 -117.719779 305 20058ft 269kts
06-Oct-18 16:18 33.144463 -117.778275 305 20059ft 283kts
06-Oct-18 16:19 33.182181 -117.837846 295 20050ft 280kts
06-Oct-18 16:20 33.208343 -117.915413 292 20058ft 284kts
06-Oct-18 16:21 33.234522 -117.993821 291 19954ft 293kts
06-Oct-18 16:22 33.260359 -118.071611 292 19892ft 294kts
06-Oct-18 16:23 33.285661 -118.148010 292 19889ft 290kts
06-Oct-18 16:24 33.310255 -118.222474 292 19888ft 289kts
06-Oct-18 16:25 33.334953 -118.297555 292 19888ft 288kts
06-Oct-18 16:26 33.360428 -118.375003 292 19895ft 288kts
06-Oct-18 16:27 33.398694 -118.438398 319 19895ft 292kts
06-Oct-18 16:28 33.454444 -118.486559 320 19894ft 292kts
06-Oct-18 16:29 33.511460 -118.535118 320 19893ft 292kts
06-Oct-18 16:30 33.565841 -118.581246 320 19892ft 292kts
06-Oct-18 16:31 33.620215 -118.627351 320 19891ft 292kts
06-Oct-18 16:32 33.674237 -118.672905 320 19863ft 294kts
06-Oct-18 16:33 33.728298 -118.718434 320 19855ft 294kts
06-Oct-18 16:34 33.779538 -118.761929 320 19860ft 292kts
06-Oct-18 16:35 33.828866 -118.803890 320 19862ft 289kts
06-Oct-18 16:36 33.878782 -118.846457 320 19861ft 288kts
06-Oct-18 16:37 33.929416 -118.889721 320 19851ft 287kts
06-Oct-18 16:38 33.979257 -118.932378 320 19850ft 286kts
06-Oct-18 16:39 34.029694 -118.975612 320 19849ft 286kts
06-Oct-18 16:40 34.079833 -119.018655 320 19848ft 285kts
06-Oct-18 16:41 34.124641 -119.067195 303 19856ft 281kts
06-Oct-18 16:42 34.161862 -119.134500 303 19848ft 282kts
06-Oct-18 16:43 34.194858 -119.194385 303 19605ft 288kts
06-Oct-18 16:44 34.228001 -119.254677 303 18711ft 290kts
06-Oct-18 16:45 34.262625 -119.317875 304 17934ft 288kts
06-Oct-18 16:46 34.300841 -119.387641 304 17234ft 289kts
06-Oct-18 16:47 34.338707 -119.456918 304 16536ft 290kts
06-Oct-18 16:48 34.372206 -119.518317 304 15919ft 292kts
06-Oct-18 16:49 34.405027 -119.578577 305 15315ft 294kts
06-Oct-18 16:50 34.437094 -119.637550 305 14737ft 296kts
06-Oct-18 16:51 34.467821 -119.693539 305 14287ft 296kts
06-Oct-18 16:52 34.499741 -119.751919 305 13865ft 296kts
06-Oct-18 16:53 34.540735 -119.811043 313 13469ft 293kts
06-Oct-18 16:54 34.580641 -119.863880 313 13125ft 293kts
06-Oct-18 16:55 34.622830 -119.919589 313 12789ft 292kts
06-Oct-18 16:56 34.667645 -119.978757 313 12463ft 292kts
06-Oct-18 16:57 34.709277 -120.033776 313 12187ft 291kts
06-Oct-18 16:58 34.751543 -120.089712 313 11896ft 287kts
06-Oct-18 16:59 34.791505 -120.142705 314 11254ft 268kts
06-Oct-18 17:00 34.829080 -120.192554 314 10633ft 263kts
06-Oct-18 17:01 34.865912 -120.241494 314 10020ft 263kts
06-Oct-18 17:02 34.901968 -120.289432 314 9186ft 232kts
06-Oct-18 17:03 34.934349 -120.332439 313 8262ft 226kts
06-Oct-18 17:04 34.974683 -120.386309 312 7123ft 236kts
06-Oct-18 17:05 35.008796 -120.431953 312 6144ft 227kts
06-Oct-18 17:06 35.050958 -120.466806 338 4968ft 221kts
06-Oct-18 17:07 35.098162 -120.484761 339 3992ft 186kts
06-Oct-18 17:08 35.135851 -120.498224 341 2929ft 187kts
06-Oct-18 17:09 35.164382 -120.516672 317 2495ft 133kts
06-Oct-18 17:10 35.181839 -120.543467 304 1986ft 141kts
06-Oct-18 17:11 35.196144 -120.568535 306 1478ft 118kts
06-Oct-18 17:12 35.209037 -120.591701 304 997ft 118kts
06-Oct-18 17:13 35.221060 -120.612223 304 679ft 102kts
06-Oct-18 17:14 35.231661 -120.630817 304 304ft 92kts
06-Oct-18 17:15 35.238505 -120.642978 306 181ft 20kts
06-Oct-18 17:16 35.239961 -120.643738 72 175ft 0kts
06-Oct-18 17:17 35.239005 -120.642021 126 184ft 15kts
06-Oct-18 17:18 35.236656 -120.637690 126 199ft 21kts
06-Oct-18 17:19 35.236304 -120.636161 9 204ft 5kts
06-Oct-18 17:20 35.236457 -120.635906 163 206ft 0kts

Navigation Log

Ident Type
1. KSAN Airport
2. MELDY Fix
3. PEBLE Fix
4. SXC Navaid
5. VTU Navaid
6. RZS Navaid
7. MQO Navaid
8. KSBP Airport